sensor_id;sensor_type;location;lat;lon;timestamp;pressure;altitude;pressure_sealevel;temperature;humidity
76496;BME280;65329;52.544;4.662;2023-03-01T00:01:14;49170.88;;;-139.74;0.00
76496;BME280;65329;52.544;4.662;2023-03-01T00:03:42;49175.03;;;-139.74;0.00
76496;BME280;65329;52.544;4.662;2023-03-01T00:06:09;49168.78;;;-139.74;0.00
76496;BME280;65329;52.544;4.662;2023-03-01T00:08:36;49172.97;;;-139.74;0.00
76496;BME280;65329;52.544;4.662;2023-03-01T00:13:35;49170.88;;;-139.74;0.00
76496;BME280;65329;52.544;4.662;2023-03-01T00:16:13;49170.88;;;-139.74;0.00
76496;BME280;65329;52.544;4.662;2023-03-01T00:18:41;49170.88;;;-139.74;0.00
76496;BME280;65329;52.544;4.662;2023-03-01T00:21:08;49172.97;;;-139.74;0.00
76496;BME280;65329;52.544;4.662;2023-03-01T00:23:35;49170.88;;;-139.74;0.00
76496;BME280;65329;52.544;4.662;2023-03-01T00:26:06;49170.88;;;-139.74;0.00
76496;BME280;65329;52.544;4.662;2023-03-01T00:28:34;49170.88;;;-139.74;0.00
76496;BME280;65329;52.544;4.662;2023-03-01T00:31:21;49170.88;;;-139.74;0.00
76496;BME280;65329;52.544;4.662;2023-03-01T00:33:52;49172.97;;;-139.74;0.00
76496;BME280;65329;52.544;4.662;2023-03-01T00:36:20;49170.88;;;-139.74;0.00
76496;BME280;65329;52.544;4.662;2023-03-01T00:38:47;49170.88;;;-139.74;0.00
76496;BME280;65329;52.544;4.662;2023-03-01T00:41:16;49172.97;;;-139.74;0.00
76496;BME280;65329;52.544;4.662;2023-03-01T00:43:44;49168.78;;;-139.74;0.00
76496;BME280;65329;52.544;4.662;2023-03-01T00:46:14;49170.88;;;-139.74;0.00
76496;BME280;65329;52.544;4.662;2023-03-01T00:48:42;49170.88;;;-139.74;0.00
76496;BME280;65329;52.544;4.662;2023-03-01T00:51:21;49170.88;;;-139.74;0.00
76496;BME280;65329;52.544;4.662;2023-03-01T00:53:52;49170.88;;;-139.74;0.00
76496;BME280;65329;52.544;4.662;2023-03-01T00:56:19;49170.88;;;-139.74;0.00
76496;BME280;65329;52.544;4.662;2023-03-01T00:58:47;49170.88;;;-139.74;0.00
76496;BME280;65329;52.544;4.662;2023-03-01T01:01:22;49170.88;;;-139.74;0.00
76496;BME280;65329;52.544;4.662;2023-03-01T01:03:55;49172.97;;;-139.74;0.00
76496;BME280;65329;52.544;4.662;2023-03-01T01:06:25;49172.97;;;-139.74;0.00
76496;BME280;65329;52.544;4.662;2023-03-01T01:08:53;49170.88;;;-139.74;0.00
76496;BME280;65329;52.544;4.662;2023-03-01T01:11:22;49172.97;;;-139.74;0.00
76496;BME280;65329;52.544;4.662;2023-03-01T01:13:50;49170.88;;;-139.74;0.00
76496;BME280;65329;52.544;4.662;2023-03-01T01:16:18;49168.78;;;-139.74;0.00
76496;BME280;65329;52.544;4.662;2023-03-01T01:18:46;49170.88;;;-139.74;0.00
76496;BME280;65329;52.544;4.662;2023-03-01T01:21:16;49175.03;;;-139.74;0.00
76496;BME280;65329;52.544;4.662;2023-03-01T01:23:43;49170.88;;;-139.74;0.00
76496;BME280;65329;52.544;4.662;2023-03-01T01:26:15;49170.88;;;-139.74;0.00
76496;BME280;65329;52.544;4.662;2023-03-01T01:28:43;49170.88;;;-139.74;0.00
76496;BME280;65329;52.544;4.662;2023-03-01T01:31:10;49175.03;;;-139.74;0.00
76496;BME280;65329;52.544;4.662;2023-03-01T01:33:37;49166.72;;;-139.74;0.00
76496;BME280;65329;52.544;4.662;2023-03-01T01:36:06;49172.97;;;-139.74;0.00
76496;BME280;65329;52.544;4.662;2023-03-01T01:38:34;49170.88;;;-139.74;0.00
76496;BME280;65329;52.544;4.662;2023-03-01T01:41:01;49170.88;;;-139.74;0.00
76496;BME280;65329;52.544;4.662;2023-03-01T01:43:30;49172.97;;;-139.74;0.00
76496;BME280;65329;52.544;4.662;2023-03-01T01:46:01;49170.88;;;-139.74;0.00
76496;BME280;65329;52.544;4.662;2023-03-01T01:48:37;49172.97;;;-139.74;0.00
76496;BME280;65329;52.544;4.662;2023-03-01T01:51:15;49175.03;;;-139.74;0.00
76496;BME280;65329;52.544;4.662;2023-03-01T01:53:48;49170.88;;;-139.74;0.00
76496;BME280;65329;52.544;4.662;2023-03-01T01:56:17;49170.88;;;-139.74;0.00
76496;BME280;65329;52.544;4.662;2023-03-01T01:58:45;49172.97;;;-139.74;0.00
76496;BME280;65329;52.544;4.662;2023-03-01T02:01:13;49170.88;;;-139.74;0.00
76496;BME280;65329;52.544;4.662;2023-03-01T02:03:42;49170.88;;;-139.74;0.00
76496;BME280;65329;52.544;4.662;2023-03-01T02:08:38;49168.78;;;-139.74;0.00
76496;BME280;65329;52.544;4.662;2023-03-01T02:11:10;49168.78;;;-139.74;0.00
76496;BME280;65329;52.544;4.662;2023-03-01T02:13:37;49175.03;;;-139.74;0.00
76496;BME280;65329;52.544;4.662;2023-03-01T02:16:08;49170.88;;;-139.74;0.00
76496;BME280;65329;52.544;4.662;2023-03-01T02:18:37;49166.72;;;-139.74;0.00
76496;BME280;65329;52.544;4.662;2023-03-01T02:23:37;49172.97;;;-139.74;0.00
76496;BME280;65329;52.544;4.662;2023-03-01T02:26:47;49172.97;;;-139.74;0.00
76496;BME280;65329;52.544;4.662;2023-03-01T02:28:54;49172.97;;;-139.74;0.00
76496;BME280;65329;52.544;4.662;2023-03-01T02:31:22;49168.78;;;-139.74;0.00
76496;BME280;65329;52.544;4.662;2023-03-01T02:34:09;49170.88;;;-139.74;0.00
76496;BME280;65329;52.544;4.662;2023-03-01T02:37:02;49170.88;;;-139.74;0.00
76496;BME280;65329;52.544;4.662;2023-03-01T02:39:39;49172.97;;;-139.74;0.00
76496;BME280;65329;52.544;4.662;2023-03-01T02:42:14;49170.88;;;-139.74;0.00
76496;BME280;65329;52.544;4.662;2023-03-01T02:44:41;49168.78;;;-139.74;0.00
76496;BME280;65329;52.544;4.662;2023-03-01T02:47:08;49168.78;;;-139.74;0.00
76496;BME280;65329;52.544;4.662;2023-03-01T02:49:36;49175.03;;;-139.74;0.00
76496;BME280;65329;52.544;4.662;2023-03-01T02:54:50;49170.88;;;-139.74;0.00
76496;BME280;65329;52.544;4.662;2023-03-01T02:57:22;49175.03;;;-139.74;0.00
76496;BME280;65329;52.544;4.662;2023-03-01T02:59:50;49170.88;;;-139.74;0.00
76496;BME280;65329;52.544;4.662;2023-03-01T03:02:21;49170.88;;;-139.74;0.00
76496;BME280;65329;52.544;4.662;2023-03-01T03:05:25;49168.78;;;-139.74;0.00
76496;BME280;65329;52.544;4.662;2023-03-01T03:07:56;49175.03;;;-139.74;0.00
76496;BME280;65329;52.544;4.662;2023-03-01T03:10:28;49170.88;;;-139.74;0.00
76496;BME280;65329;52.544;4.662;2023-03-01T03:12:58;49170.88;;;-139.74;0.00
76496;BME280;65329;52.544;4.662;2023-03-01T03:15:27;49170.88;;;-139.74;0.00
76496;BME280;65329;52.544;4.662;2023-03-01T03:17:55;49172.97;;;-139.74;0.00
76496;BME280;65329;52.544;4.662;2023-03-01T03:20:27;49170.88;;;-139.74;0.00
76496;BME280;65329;52.544;4.662;2023-03-01T03:22:56;49166.72;;;-139.74;0.00
76496;BME280;65329;52.544;4.662;2023-03-01T03:25:23;49172.97;;;-139.74;0.00
76496;BME280;65329;52.544;4.662;2023-03-01T03:27:52;49170.88;;;-139.74;0.00
76496;BME280;65329;52.544;4.662;2023-03-01T03:30:30;49172.97;;;-139.74;0.00
76496;BME280;65329;52.544;4.662;2023-03-01T03:32:58;49170.88;;;-139.74;0.00
76496;BME280;65329;52.544;4.662;2023-03-01T03:37:54;49170.88;;;-139.74;0.00
76496;BME280;65329;52.544;4.662;2023-03-01T03:40:34;49175.03;;;-139.74;0.00
76496;BME280;65329;52.544;4.662;2023-03-01T03:43:02;49170.88;;;-139.74;0.00
76496;BME280;65329;52.544;4.662;2023-03-01T03:45:29;49172.97;;;-139.74;0.00
76496;BME280;65329;52.544;4.662;2023-03-01T03:47:56;49172.97;;;-139.74;0.00
76496;BME280;65329;52.544;4.662;2023-03-01T03:50:23;49172.97;;;-139.74;0.00
76496;BME280;65329;52.544;4.662;2023-03-01T03:52:50;49168.78;;;-139.74;0.00
76496;BME280;65329;52.544;4.662;2023-03-01T03:55:17;49172.97;;;-139.74;0.00
76496;BME280;65329;52.544;4.662;2023-03-01T03:57:47;49170.88;;;-139.74;0.00
76496;BME280;65329;52.544;4.662;2023-03-01T04:00:20;49172.97;;;-139.74;0.00
76496;BME280;65329;52.544;4.662;2023-03-01T04:02:48;49170.88;;;-139.74;0.00
76496;BME280;65329;52.544;4.662;2023-03-01T04:05:17;49170.88;;;-139.74;0.00
76496;BME280;65329;52.544;4.662;2023-03-01T04:07:45;49170.88;;;-139.74;0.00
76496;BME280;65329;52.544;4.662;2023-03-01T04:10:17;49170.88;;;-139.74;0.00
76496;BME280;65329;52.544;4.662;2023-03-01T04:12:44;49172.97;;;-139.74;0.00
76496;BME280;65329;52.544;4.662;2023-03-01T04:15:26;49170.88;;;-139.74;0.00
76496;BME280;65329;52.544;4.662;2023-03-01T04:17:55;49172.97;;;-139.74;0.00
76496;BME280;65329;52.544;4.662;2023-03-01T04:20:28;49166.72;;;-139.74;0.00
76496;BME280;65329;52.544;4.662;2023-03-01T04:23:18;49175.03;;;-139.74;0.00
76496;BME280;65329;52.544;4.662;2023-03-01T04:25:53;49170.88;;;-139.74;0.00
76496;BME280;65329;52.544;4.662;2023-03-01T04:30:52;49172.97;;;-139.74;0.00
76496;BME280;65329;52.544;4.662;2023-03-01T04:33:20;49170.88;;;-139.74;0.00
76496;BME280;65329;52.544;4.662;2023-03-01T04:35:48;49172.97;;;-139.74;0.00
76496;BME280;65329;52.544;4.662;2023-03-01T04:38:17;49170.88;;;-139.74;0.00
76496;BME280;65329;52.544;4.662;2023-03-01T04:40:44;49172.97;;;-139.74;0.00
76496;BME280;65329;52.544;4.662;2023-03-01T04:43:12;49170.88;;;-139.74;0.00
76496;BME280;65329;52.544;4.662;2023-03-01T04:45:42;49170.88;;;-139.74;0.00
76496;BME280;65329;52.544;4.662;2023-03-01T04:48:09;49170.88;;;-139.74;0.00
76496;BME280;65329;52.544;4.662;2023-03-01T04:50:35;49172.97;;;-139.74;0.00
76496;BME280;65329;52.544;4.662;2023-03-01T04:53:03;49172.97;;;-139.74;0.00
76496;BME280;65329;52.544;4.662;2023-03-01T04:55:30;49170.88;;;-139.74;0.00
76496;BME280;65329;52.544;4.662;2023-03-01T04:57:57;49172.97;;;-139.74;0.00
76496;BME280;65329;52.544;4.662;2023-03-01T05:00:24;49175.03;;;-139.74;0.00
76496;BME280;65329;52.544;4.662;2023-03-01T05:02:58;49170.88;;;-139.74;0.00
76496;BME280;65329;52.544;4.662;2023-03-01T05:05:32;49172.97;;;-139.74;0.00
76496;BME280;65329;52.544;4.662;2023-03-01T05:08:02;49175.03;;;-139.74;0.00
76496;BME280;65329;52.544;4.662;2023-03-01T05:10:31;49172.97;;;-139.74;0.00
76496;BME280;65329;52.544;4.662;2023-03-01T05:12:58;49175.03;;;-139.74;0.00
76496;BME280;65329;52.544;4.662;2023-03-01T05:15:27;49175.03;;;-139.74;0.00
76496;BME280;65329;52.544;4.662;2023-03-01T05:17:57;49170.88;;;-139.74;0.00
76496;BME280;65329;52.544;4.662;2023-03-01T05:20:29;49172.97;;;-139.74;0.00
76496;BME280;65329;52.544;4.662;2023-03-01T05:22:59;49170.88;;;-139.74;0.00
76496;BME280;65329;52.544;4.662;2023-03-01T05:25:26;49172.97;;;-139.74;0.00
76496;BME280;65329;52.544;4.662;2023-03-01T05:27:53;49172.97;;;-139.74;0.00
76496;BME280;65329;52.544;4.662;2023-03-01T05:30:20;49172.97;;;-139.74;0.00
76496;BME280;65329;52.544;4.662;2023-03-01T05:32:49;49175.03;;;-139.74;0.00
76496;BME280;65329;52.544;4.662;2023-03-01T05:35:23;49170.88;;;-139.74;0.00
76496;BME280;65329;52.544;4.662;2023-03-01T05:37:50;49170.88;;;-139.74;0.00
76496;BME280;65329;52.544;4.662;2023-03-01T05:40:19;49172.97;;;-139.74;0.00
76496;BME280;65329;52.544;4.662;2023-03-01T05:42:50;49170.88;;;-139.74;0.00
76496;BME280;65329;52.544;4.662;2023-03-01T05:45:18;49175.03;;;-139.74;0.00
76496;BME280;65329;52.544;4.662;2023-03-01T05:47:46;49172.97;;;-139.74;0.00
76496;BME280;65329;52.544;4.662;2023-03-01T05:50:18;49172.97;;;-139.74;0.00
76496;BME280;65329;52.544;4.662;2023-03-01T05:52:46;49175.03;;;-139.74;0.00
76496;BME280;65329;52.544;4.662;2023-03-01T05:55:13;49175.03;;;-139.74;0.00
76496;BME280;65329;52.544;4.662;2023-03-01T05:57:40;49170.88;;;-139.74;0.00
76496;BME280;65329;52.544;4.662;2023-03-01T06:00:08;49172.97;;;-139.74;0.00
76496;BME280;65329;52.544;4.662;2023-03-01T06:02:38;49172.97;;;-139.74;0.00
76496;BME280;65329;52.544;4.662;2023-03-01T06:05:08;49172.97;;;-139.74;0.00
76496;BME280;65329;52.544;4.662;2023-03-01T06:07:35;49177.13;;;-139.74;0.00
76496;BME280;65329;52.544;4.662;2023-03-01T06:10:04;49170.88;;;-139.74;0.00
76496;BME280;65329;52.544;4.662;2023-03-01T06:12:32;49175.03;;;-139.74;0.00
76496;BME280;65329;52.544;4.662;2023-03-01T06:15:00;49172.97;;;-139.74;0.00
76496;BME280;65329;52.544;4.662;2023-03-01T06:17:30;49172.97;;;-139.74;0.00
76496;BME280;65329;52.544;4.662;2023-03-01T06:19:57;49172.97;;;-139.74;0.00
76496;BME280;65329;52.544;4.662;2023-03-01T06:22:24;49168.78;;;-139.74;0.00
76496;BME280;65329;52.544;4.662;2023-03-01T06:24:51;49172.97;;;-139.74;0.00
76496;BME280;65329;52.544;4.662;2023-03-01T06:27:17;49172.97;;;-139.74;0.00
76496;BME280;65329;52.544;4.662;2023-03-01T06:29:44;49175.03;;;-139.74;0.00
76496;BME280;65329;52.544;4.662;2023-03-01T06:32:11;49175.03;;;-139.74;0.00
76496;BME280;65329;52.544;4.662;2023-03-01T06:34:37;49172.97;;;-139.74;0.00
76496;BME280;65329;52.544;4.662;2023-03-01T06:37:04;49172.97;;;-139.74;0.00
76496;BME280;65329;52.544;4.662;2023-03-01T06:39:32;49170.88;;;-139.74;0.00
76496;BME280;65329;52.544;4.662;2023-03-01T06:41:59;49170.88;;;-139.74;0.00
76496;BME280;65329;52.544;4.662;2023-03-01T06:44:26;49172.97;;;-139.74;0.00
76496;BME280;65329;52.544;4.662;2023-03-01T06:46:53;49172.97;;;-139.74;0.00
76496;BME280;65329;52.544;4.662;2023-03-01T06:49:20;49175.03;;;-139.74;0.00
76496;BME280;65329;52.544;4.662;2023-03-01T06:51:47;49172.97;;;-139.74;0.00
76496;BME280;65329;52.544;4.662;2023-03-01T06:54:14;49175.03;;;-139.74;0.00
76496;BME280;65329;52.544;4.662;2023-03-01T06:56:41;49175.03;;;-139.74;0.00
76496;BME280;65329;52.544;4.662;2023-03-01T06:59:07;49175.03;;;-139.74;0.00
76496;BME280;65329;52.544;4.662;2023-03-01T07:01:34;49170.88;;;-139.74;0.00
76496;BME280;65329;52.544;4.662;2023-03-01T07:04:01;49170.88;;;-139.74;0.00
76496;BME280;65329;52.544;4.662;2023-03-01T07:06:27;49170.88;;;-139.74;0.00
76496;BME280;65329;52.544;4.662;2023-03-01T07:08:55;49170.88;;;-139.74;0.00
76496;BME280;65329;52.544;4.662;2023-03-01T07:11:22;49175.03;;;-139.74;0.00
76496;BME280;65329;52.544;4.662;2023-03-01T07:13:49;49172.97;;;-139.74;0.00
76496;BME280;65329;52.544;4.662;2023-03-01T07:16:16;49175.03;;;-139.74;0.00
76496;BME280;65329;52.544;4.662;2023-03-01T07:18:42;49172.97;;;-139.74;0.00
76496;BME280;65329;52.544;4.662;2023-03-01T07:21:12;49172.97;;;-139.74;0.00
76496;BME280;65329;52.544;4.662;2023-03-01T07:23:39;49170.88;;;-139.74;0.00
76496;BME280;65329;52.544;4.662;2023-03-01T07:26:05;49172.97;;;-139.74;0.00
76496;BME280;65329;52.544;4.662;2023-03-01T07:28:32;49175.03;;;-139.74;0.00
76496;BME280;65329;52.544;4.662;2023-03-01T07:31:05;49175.03;;;-139.74;0.00
76496;BME280;65329;52.544;4.662;2023-03-01T07:33:32;49170.88;;;-139.74;0.00
76496;BME280;65329;52.544;4.662;2023-03-01T07:36:02;49170.88;;;-139.74;0.00
76496;BME280;65329;52.544;4.662;2023-03-01T07:38:29;49172.97;;;-139.74;0.00
76496;BME280;65329;52.544;4.662;2023-03-01T07:41:00;49170.88;;;-139.74;0.00
76496;BME280;65329;52.544;4.662;2023-03-01T07:43:28;49170.88;;;-139.74;0.00
76496;BME280;65329;52.544;4.662;2023-03-01T07:45:59;49175.03;;;-139.74;0.00
76496;BME280;65329;52.544;4.662;2023-03-01T07:48:27;49170.88;;;-139.74;0.00
76496;BME280;65329;52.544;4.662;2023-03-01T07:50:58;49168.78;;;-139.74;0.00
76496;BME280;65329;52.544;4.662;2023-03-01T07:53:25;49170.88;;;-139.74;0.00
76496;BME280;65329;52.544;4.662;2023-03-01T07:56:06;49166.72;;;-139.74;0.00
76496;BME280;65329;52.544;4.662;2023-03-01T07:58:35;49170.88;;;-139.74;0.00
76496;BME280;65329;52.544;4.662;2023-03-01T08:01:03;49170.88;;;-139.74;0.00
76496;BME280;65329;52.544;4.662;2023-03-01T08:03:32;49168.78;;;-139.74;0.00
76496;BME280;65329;52.544;4.662;2023-03-01T08:06:00;49166.72;;;-139.74;0.00
76496;BME280;65329;52.544;4.662;2023-03-01T08:08:27;49164.63;;;-139.74;0.00
76496;BME280;65329;52.544;4.662;2023-03-01T08:10:58;49166.72;;;-139.74;0.00
76496;BME280;65329;52.544;4.662;2023-03-01T08:13:26;49164.63;;;-139.74;0.00
76496;BME280;65329;52.544;4.662;2023-03-01T08:15:53;49170.88;;;-139.74;0.00
76496;BME280;65329;52.544;4.662;2023-03-01T08:18:21;49164.63;;;-139.74;0.00
76496;BME280;65329;52.544;4.662;2023-03-01T08:20:48;49166.72;;;-139.74;0.00
76496;BME280;65329;52.544;4.662;2023-03-01T08:23:15;49168.78;;;-139.74;0.00
76496;BME280;65329;52.544;4.662;2023-03-01T08:25:41;49166.72;;;-139.74;0.00
76496;BME280;65329;52.544;4.662;2023-03-01T08:28:10;49168.78;;;-139.74;0.00
76496;BME280;65329;52.544;4.662;2023-03-01T08:30:37;49166.72;;;-139.74;0.00
76496;BME280;65329;52.544;4.662;2023-03-01T08:33:04;49166.72;;;-139.74;0.00
76496;BME280;65329;52.544;4.662;2023-03-01T08:35:32;49166.72;;;-139.74;0.00
76496;BME280;65329;52.544;4.662;2023-03-01T08:37:59;49164.63;;;-139.74;0.00
76496;BME280;65329;52.544;4.662;2023-03-01T08:40:26;49164.63;;;-139.74;0.00
76496;BME280;65329;52.544;4.662;2023-03-01T08:42:53;49168.78;;;-139.74;0.00
76496;BME280;65329;52.544;4.662;2023-03-01T08:45:20;49166.72;;;-139.74;0.00
76496;BME280;65329;52.544;4.662;2023-03-01T08:47:54;49164.63;;;-139.74;0.00
76496;BME280;65329;52.544;4.662;2023-03-01T08:50:34;49166.72;;;-139.74;0.00
76496;BME280;65329;52.544;4.662;2023-03-01T08:53:01;49162.53;;;-139.74;0.00
76496;BME280;65329;52.544;4.662;2023-03-01T08:55:28;49166.72;;;-139.74;0.00
76496;BME280;65329;52.544;4.662;2023-03-01T08:57:55;49164.63;;;-139.74;0.00
76496;BME280;65329;52.544;4.662;2023-03-01T09:00:22;49145.88;;;-139.74;0.00
76496;BME280;65329;52.544;4.662;2023-03-01T09:02:50;49162.53;;;-139.74;0.00
76496;BME280;65329;52.544;4.662;2023-03-01T09:05:17;49145.88;;;-139.74;0.00
76496;BME280;65329;52.544;4.662;2023-03-01T09:07:52;49166.72;;;-139.74;0.00
76496;BME280;65329;52.544;4.662;2023-03-01T09:10:19;49145.88;;;-139.74;0.00
76496;BME280;65329;52.544;4.662;2023-03-01T09:12:46;49164.63;;;-139.74;0.00
76496;BME280;65329;52.544;4.662;2023-03-01T09:15:13;49162.53;;;-139.74;0.00
76496;BME280;65329;52.544;4.662;2023-03-01T09:17:40;49162.53;;;-139.74;0.00
76496;BME280;65329;52.544;4.662;2023-03-01T09:20:08;49162.53;;;-139.74;0.00
76496;BME280;65329;52.544;4.662;2023-03-01T09:22:35;49145.88;;;-139.74;0.00
76496;BME280;65329;52.544;4.662;2023-03-01T09:25:04;49164.63;;;-139.74;0.00
76496;BME280;65329;52.544;4.662;2023-03-01T09:27:31;49145.88;;;-139.74;0.00
76496;BME280;65329;52.544;4.662;2023-03-01T09:29:58;49164.63;;;-139.74;0.00
76496;BME280;65329;52.544;4.662;2023-03-01T09:32:25;49166.72;;;-139.74;0.00
76496;BME280;65329;52.544;4.662;2023-03-01T09:34:52;49162.53;;;-139.74;0.00
76496;BME280;65329;52.544;4.662;2023-03-01T09:37:34;49164.63;;;-139.74;0.00
76496;BME280;65329;52.544;4.662;2023-03-01T09:40:04;49145.88;;;-139.74;0.00
76496;BME280;65329;52.544;4.662;2023-03-01T09:42:35;49166.72;;;-139.74;0.00
76496;BME280;65329;52.544;4.662;2023-03-01T09:45:26;49164.63;;;-139.74;0.00
76496;BME280;65329;52.544;4.662;2023-03-01T09:47:55;49162.53;;;-139.74;0.00
76496;BME280;65329;52.544;4.662;2023-03-01T09:50:22;49166.72;;;-139.74;0.00
76496;BME280;65329;52.544;4.662;2023-03-01T09:55:31;49164.63;;;-139.74;0.00
76496;BME280;65329;52.544;4.662;2023-03-01T09:58:50;49162.53;;;-139.74;0.00
76496;BME280;65329;52.544;4.662;2023-03-01T10:00:53;49166.72;;;-139.74;0.00
76496;BME280;65329;52.544;4.662;2023-03-01T10:03:35;49145.88;;;-139.74;0.00
76496;BME280;65329;52.544;4.662;2023-03-01T10:06:20;49166.72;;;-139.74;0.00
76496;BME280;65329;52.544;4.662;2023-03-01T10:09:19;49162.53;;;-139.74;0.00
76496;BME280;65329;52.544;4.662;2023-03-01T10:11:50;49145.88;;;-139.74;0.00
76496;BME280;65329;52.544;4.662;2023-03-01T10:17:17;49145.88;;;-139.74;0.00
76496;BME280;65329;52.544;4.662;2023-03-01T10:19:47;49162.53;;;-139.74;0.00
76496;BME280;65329;52.544;4.662;2023-03-01T10:24:48;49162.53;;;-139.74;0.00
76496;BME280;65329;52.544;4.662;2023-03-01T10:30:09;49145.88;;;-139.74;0.00
76496;BME280;65329;52.544;4.662;2023-03-01T10:32:46;49145.88;;;-139.74;0.00
76496;BME280;65329;52.544;4.662;2023-03-01T10:35:24;49145.88;;;-139.74;0.00
76496;BME280;65329;52.544;4.662;2023-03-01T10:38:05;49145.88;;;-139.74;0.00
76496;BME280;65329;52.544;4.662;2023-03-01T10:40:34;49145.88;;;-139.74;0.00
76496;BME280;65329;52.544;4.662;2023-03-01T10:43:04;49164.63;;;-139.74;0.00
76496;BME280;65329;52.544;4.662;2023-03-01T10:45:38;49164.63;;;-139.74;0.00
76496;BME280;65329;52.544;4.662;2023-03-01T10:50:42;49164.63;;;-139.74;0.00
76496;BME280;65329;52.544;4.662;2023-03-01T10:56:07;49145.88;;;-139.74;0.00
76496;BME280;65329;52.544;4.662;2023-03-01T10:58:37;49162.53;;;-139.74;0.00
76496;BME280;65329;52.544;4.662;2023-03-01T11:01:29;49145.88;;;-139.74;0.00
76496;BME280;65329;52.544;4.662;2023-03-01T11:04:12;49162.53;;;-139.74;0.00
76496;BME280;65329;52.544;4.662;2023-03-01T11:06:41;49164.63;;;-139.74;0.00
76496;BME280;65329;52.544;4.662;2023-03-01T11:09:22;49162.53;;;-139.74;0.00
76496;BME280;65329;52.544;4.662;2023-03-01T11:11:53;49162.53;;;-139.74;0.00
76496;BME280;65329;52.544;4.662;2023-03-01T11:14:25;49166.72;;;-139.74;0.00
76496;BME280;65329;52.544;4.662;2023-03-01T11:17:23;49166.72;;;-139.74;0.00
76496;BME280;65329;52.544;4.662;2023-03-01T11:20:26;49164.63;;;-139.74;0.00
76496;BME280;65329;52.544;4.662;2023-03-01T11:25:37;49162.53;;;-139.74;0.00
76496;BME280;65329;52.544;4.662;2023-03-01T11:28:06;49164.63;;;-139.74;0.00
76496;BME280;65329;52.544;4.662;2023-03-01T11:31:00;49164.63;;;-139.74;0.00
76496;BME280;65329;52.544;4.662;2023-03-01T11:38:54;49145.88;;;-139.74;0.00
76496;BME280;65329;52.544;4.662;2023-03-01T11:41:33;49145.88;;;-139.74;0.00
76496;BME280;65329;52.544;4.662;2023-03-01T11:44:10;49162.53;;;-139.74;0.00
76496;BME280;65329;52.544;4.662;2023-03-01T11:47:06;49166.72;;;-139.74;0.00
76496;BME280;65329;52.544;4.662;2023-03-01T11:52:51;49166.72;;;-139.74;0.00
76496;BME280;65329;52.544;4.662;2023-03-01T12:06:32;49166.72;;;-139.74;0.00
76496;BME280;65329;52.544;4.662;2023-03-01T12:12:25;49162.53;;;-139.74;0.00
76496;BME280;65329;52.544;4.662;2023-03-01T12:18:05;49166.72;;;-139.74;0.00
76496;BME280;65329;52.544;4.662;2023-03-01T12:37:31;49145.88;;;-139.74;0.00
76496;BME280;65329;52.544;4.662;2023-03-01T12:43:54;49170.88;;;-139.74;0.00
76496;BME280;65329;52.544;4.662;2023-03-01T12:51:14;49162.53;;;-139.74;0.00
76496;BME280;65329;52.544;4.662;2023-03-01T12:53:47;49162.53;;;-139.74;0.00
76496;BME280;65329;52.544;4.662;2023-03-01T12:56:26;49162.53;;;-139.74;0.00
76496;BME280;65329;52.544;4.662;2023-03-01T13:01:59;49162.53;;;-139.74;0.00
76496;BME280;65329;52.544;4.662;2023-03-01T13:07:31;49164.63;;;-139.74;0.00
76496;BME280;65329;52.544;4.662;2023-03-01T13:10:26;49164.63;;;-139.74;0.00
76496;BME280;65329;52.544;4.662;2023-03-01T13:15:31;49164.63;;;-139.74;0.00
76496;BME280;65329;52.544;4.662;2023-03-01T13:29:25;49166.72;;;-139.74;0.00
76496;BME280;65329;52.544;4.662;2023-03-01T13:34:42;49166.72;;;-139.74;0.00
76496;BME280;65329;52.544;4.662;2023-03-01T13:37:19;49168.78;;;-139.74;0.00
76496;BME280;65329;52.544;4.662;2023-03-01T13:39:46;49164.63;;;-139.74;0.00
76496;BME280;65329;52.544;4.662;2023-03-01T13:42:39;49162.53;;;-139.74;0.00
76496;BME280;65329;52.544;4.662;2023-03-01T13:48:30;49166.72;;;-139.74;0.00
76496;BME280;65329;52.544;4.662;2023-03-01T13:51:00;49166.72;;;-139.74;0.00
76496;BME280;65329;52.544;4.662;2023-03-01T13:53:33;49166.72;;;-139.74;0.00
76496;BME280;65329;52.544;4.662;2023-03-01T13:58:52;49166.72;;;-139.74;0.00
76496;BME280;65329;52.544;4.662;2023-03-01T14:01:29;49166.72;;;-139.74;0.00
76496;BME280;65329;52.544;4.662;2023-03-01T14:04:00;49164.63;;;-139.74;0.00
76496;BME280;65329;52.544;4.662;2023-03-01T14:06:47;49164.63;;;-139.74;0.00
76496;BME280;65329;52.544;4.662;2023-03-01T14:09:23;49164.63;;;-139.74;0.00
76496;BME280;65329;52.544;4.662;2023-03-01T14:20:21;49166.72;;;-139.74;0.00
76496;BME280;65329;52.544;4.662;2023-03-01T14:22:52;49164.63;;;-139.74;0.00
76496;BME280;65329;52.544;4.662;2023-03-01T14:25:34;49162.53;;;-139.74;0.00
76496;BME280;65329;52.544;4.662;2023-03-01T14:28:12;49170.88;;;-139.74;0.00
76496;BME280;65329;52.544;4.662;2023-03-01T14:30:43;49164.63;;;-139.74;0.00
76496;BME280;65329;52.544;4.662;2023-03-01T14:33:34;49164.63;;;-139.74;0.00
76496;BME280;65329;52.544;4.662;2023-03-01T14:36:10;49166.72;;;-139.74;0.00
76496;BME280;65329;52.544;4.662;2023-03-01T14:38:46;49166.72;;;-139.74;0.00
76496;BME280;65329;52.544;4.662;2023-03-01T14:41:18;49166.72;;;-139.74;0.00
76496;BME280;65329;52.544;4.662;2023-03-01T14:43:59;49162.53;;;-139.74;0.00
76496;BME280;65329;52.544;4.662;2023-03-01T14:46:38;49162.53;;;-139.74;0.00
76496;BME280;65329;52.544;4.662;2023-03-01T14:49:19;49166.72;;;-139.74;0.00
76496;BME280;65329;52.544;4.662;2023-03-01T14:52:00;49164.63;;;-139.74;0.00
76496;BME280;65329;52.544;4.662;2023-03-01T14:54:41;49164.63;;;-139.74;0.00
76496;BME280;65329;52.544;4.662;2023-03-01T14:57:20;49164.63;;;-139.74;0.00
76496;BME280;65329;52.544;4.662;2023-03-01T14:59:52;49164.63;;;-139.74;0.00
76496;BME280;65329;52.544;4.662;2023-03-01T15:02:24;49164.63;;;-139.74;0.00
76496;BME280;65329;52.544;4.662;2023-03-01T15:04:55;49166.72;;;-139.74;0.00
76496;BME280;65329;52.544;4.662;2023-03-01T15:07:31;49162.53;;;-139.74;0.00
76496;BME280;65329;52.544;4.662;2023-03-01T15:10:00;49164.63;;;-139.74;0.00
76496;BME280;65329;52.544;4.662;2023-03-01T15:12:39;49166.72;;;-139.74;0.00
76496;BME280;65329;52.544;4.662;2023-03-01T15:15:32;49162.53;;;-139.74;0.00